Time;durP1;ratioP1;P1;durP2;ratioP2;P2;SDS_P1;SDS_P2;PMS_P1;PMS_P2;Temp;Humidity;BMP_temperature;BMP_pressure;BME280_temperature;BME280_humidity;BME280_pressure;Samples;Min_cycle;Max_cycle;Signal;HPM_P1;HPM_P2
2022/07/21 00:02:01;;;;;;;;;4.00;3.33;;;;;;;;5015839;28;45507;-70
2022/07/21 00:04:26;;;;;;;;;3.00;3.00;;;;;;;;5016224;28;45618;-70
2022/07/21 00:06:51;;;;;;;;;2.33;2.33;;;;;;;;5015668;28;45374;-70
2022/07/21 00:09:16;;;;;;;;;2.00;2.00;;;;;;;;5015888;28;45376;-70
2022/07/21 00:11:42;;;;;;;;;3.67;3.33;;;;;;;;5016261;28;45379;-70
2022/07/21 00:14:09;;;;;;;;;1.00;1.00;;;;;;;;5015212;28;45518;-70
2022/07/21 00:16:34;;;;;;;;;3.33;2.00;;;;;;;;5014997;28;45431;-70
2022/07/21 00:19:00;;;;;;;;;2.00;2.00;;;;;;;;5015548;28;45376;-70
2022/07/21 00:21:26;;;;;;;;;1.33;1.33;;;;;;;;5016040;28;45422;-70
2022/07/21 00:23:51;;;;;;;;;2.33;2.33;;;;;;;;5015363;28;45395;-70
2022/07/21 00:26:16;;;;;;;;;4.33;4.33;;;;;;;;5015552;28;45434;-70
2022/07/21 00:28:41;;;;;;;;;3.00;3.00;;;;;;;;5015743;28;45486;-70
2022/07/21 00:31:06;;;;;;;;;0.33;0.00;;;;;;;;5015456;28;45269;-70
2022/07/21 00:33:32;;;;;;;;;2.00;2.00;;;;;;;;5014966;28;45435;-70
2022/07/21 00:35:57;;;;;;;;;4.00;4.00;;;;;;;;5015073;28;45602;-70
2022/07/21 00:38:22;;;;;;;;;2.00;2.00;;;;;;;;5015785;28;45501;-69
2022/07/21 00:40:47;;;;;;;;;5.00;5.00;;;;;;;;5014902;28;45400;-70
2022/07/21 00:43:12;;;;;;;;;6.00;3.33;;;;;;;;5015647;28;45454;-70
2022/07/21 00:45:37;;;;;;;;;2.33;2.33;;;;;;;;5014906;28;45498;-70
2022/07/21 00:48:03;;;;;;;;;2.33;2.33;;;;;;;;5015277;28;45514;-70
2022/07/21 00:50:28;;;;;;;;;0.33;0.33;;;;;;;;5015593;28;45463;-70
2022/07/21 00:52:53;;;;;;;;;2.67;2.33;;;;;;;;5015588;28;45229;-70
2022/07/21 00:55:20;;;;;;;;;2.00;2.00;;;;;;;;5015058;28;46045;-70
2022/07/21 00:57:45;;;;;;;;;6.33;3.00;;;;;;;;5013891;28;45499;-70
2022/07/21 01:00:16;;;;;;;;;4.33;3.00;;;;;;;;5014950;28;45364;-70
2022/07/21 01:02:41;;;;;;;;;2.67;2.67;;;;;;;;5015384;28;45368;-70
2022/07/21 01:05:17;;;;;;;;;2.00;2.00;;;;;;;;5014878;28;46181;-70
2022/07/21 01:07:43;;;;;;;;;3.00;2.33;;;;;;;;5015215;28;45375;-70
2022/07/21 01:10:10;;;;;;;;;2.00;2.00;;;;;;;;5014739;28;45306;-70
2022/07/21 01:12:35;;;;;;;;;3.33;3.33;;;;;;;;5001018;28;45652;-70
2022/07/21 01:15:01;;;;;;;;;4.67;4.67;;;;;;;;5014453;28;46394;-70
2022/07/21 01:17:26;;;;;;;;;3.67;3.67;;;;;;;;5014774;28;45510;-70
2022/07/21 01:19:52;;;;;;;;;3.00;3.00;;;;;;;;5015134;28;45543;-70
2022/07/21 01:22:17;;;;;;;;;3.00;3.00;;;;;;;;5014871;28;45423;-70
2022/07/21 01:24:42;;;;;;;;;3.00;3.00;;;;;;;;5015146;28;46669;-70
2022/07/21 01:27:07;;;;;;;;;4.67;3.67;;;;;;;;5015083;28;45321;-70
2022/07/21 01:29:32;;;;;;;;;5.33;3.00;;;;;;;;5014605;28;45423;-70
2022/07/21 01:31:58;;;;;;;;;2.00;2.00;;;;;;;;5014747;28;45481;-69
2022/07/21 01:34:23;;;;;;;;;3.67;3.67;;;;;;;;5014881;28;46666;-70
2022/07/21 01:36:48;;;;;;;;;4.33;4.33;;;;;;;;5016800;28;45369;-70
2022/07/21 01:41:57;;;;;;;;;3.67;2.67;;;;;;;;5018399;28;45443;-70
2022/07/21 01:44:22;;;;;;;;;4.33;3.00;;;;;;;;5017550;28;45451;-70
2022/07/21 01:46:49;;;;;;;;;3.00;2.33;;;;;;;;5018204;28;45363;-70
2022/07/21 01:49:15;;;;;;;;;7.00;5.00;;;;;;;;5018074;28;45375;-70
2022/07/21 01:51:41;;;;;;;;;3.00;3.00;;;;;;;;5017613;28;45490;-70
2022/07/21 01:54:07;;;;;;;;;4.00;4.00;;;;;;;;5018068;28;46360;-70
2022/07/21 01:56:33;;;;;;;;;4.00;3.00;;;;;;;;5017823;28;45229;-70
2022/07/21 01:58:58;;;;;;;;;3.33;3.33;;;;;;;;5017799;28;45196;-70
2022/07/21 02:01:26;;;;;;;;;5.33;3.33;;;;;;;;5017619;28;45306;-70
2022/07/21 02:03:52;;;;;;;;;3.67;3.67;;;;;;;;5017846;28;46352;-70
2022/07/21 02:06:17;;;;;;;;;3.00;2.67;;;;;;;;5017597;28;45360;-70
2022/07/21 02:08:42;;;;;;;;;5.00;4.00;;;;;;;;5017832;28;45324;-70
2022/07/21 02:11:08;;;;;;;;;4.00;4.00;;;;;;;;5017587;28;45379;-70
2022/07/21 02:13:33;;;;;;;;;3.33;3.33;;;;;;;;5017270;28;46273;-70
2022/07/21 02:15:58;;;;;;;;;3.00;3.00;;;;;;;;5016917;28;45364;-70
2022/07/21 02:18:24;;;;;;;;;4.67;4.67;;;;;;;;5018067;28;45409;-70
2022/07/21 02:20:50;;;;;;;;;5.67;4.33;;;;;;;;5017223;28;45589;-70
2022/07/21 02:23:15;;;;;;;;;3.00;3.00;;;;;;;;5017491;28;46430;-70
2022/07/21 02:25:40;;;;;;;;;3.00;3.00;;;;;;;;5017154;28;45448;-70
2022/07/21 02:28:05;;;;;;;;;3.00;3.00;;;;;;;;5017099;28;45392;-69
2022/07/21 02:30:31;;;;;;;;;4.33;4.33;;;;;;;;5017342;28;45332;-70
2022/07/21 02:32:56;;;;;;;;;3.33;3.33;;;;;;;;5017098;28;46532;-70
2022/07/21 02:35:21;;;;;;;;;5.33;3.33;;;;;;;;5017591;28;45308;-70
2022/07/21 02:37:46;;;;;;;;;2.67;2.67;;;;;;;;5016821;28;45320;-70
2022/07/21 02:40:11;;;;;;;;;3.33;3.33;;;;;;;;5017700;28;45427;-70
2022/07/21 02:42:37;;;;;;;;;5.00;5.00;;;;;;;;5016496;28;46669;-70
2022/07/21 02:45:03;;;;;;;;;3.33;3.33;;;;;;;;5017583;28;45341;-70
2022/07/21 02:47:29;;;;;;;;;5.00;3.33;;;;;;;;5017384;28;45292;-69
2022/07/21 02:49:54;;;;;;;;;4.00;4.00;;;;;;;;5016943;28;45396;-70
2022/07/21 02:52:19;;;;;;;;;6.67;5.33;;;;;;;;5016957;28;46331;-70
2022/07/21 02:54:44;;;;;;;;;4.00;4.00;;;;;;;;5017278;28;45442;-69
2022/07/21 02:57:09;;;;;;;;;3.33;3.33;;;;;;;;5017244;28;45362;-70
2022/07/21 02:59:34;;;;;;;;;5.00;5.00;;;;;;;;5016946;28;45336;-70
2022/07/21 03:02:00;;;;;;;;;5.33;4.33;;;;;;;;5016886;28;46205;-70
2022/07/21 03:04:25;;;;;;;;;3.33;3.33;;;;;;;;5017244;28;45386;-70
2022/07/21 03:06:50;;;;;;;;;3.00;3.00;;;;;;;;5016319;28;45292;-71
2022/07/21 03:09:15;;;;;;;;;4.67;4.67;;;;;;;;5016654;28;45328;-69
2022/07/21 03:11:40;;;;;;;;;3.67;3.67;;;;;;;;5016359;28;46176;-70
2022/07/21 03:14:06;;;;;;;;;4.67;4.67;;;;;;;;5016841;28;45402;-70
2022/07/21 03:16:31;;;;;;;;;5.67;4.00;;;;;;;;5016582;28;45290;-70
2022/07/21 03:18:56;;;;;;;;;4.67;3.00;;;;;;;;5016654;28;45354;-70
2022/07/21 03:21:21;;;;;;;;;4.00;4.00;;;;;;;;5016230;28;45396;-70
2022/07/21 03:23:46;;;;;;;;;3.00;3.00;;;;;;;;5016769;28;45362;-70
2022/07/21 03:26:12;;;;;;;;;5.00;5.00;;;;;;;;5016284;28;45415;-70
2022/07/21 03:28:38;;;;;;;;;4.67;4.67;;;;;;;;5016286;28;45479;-70
2022/07/21 03:31:03;;;;;;;;;4.00;3.33;;;;;;;;5016372;28;45537;-70
2022/07/21 03:33:28;;;;;;;;;6.33;5.00;;;;;;;;5016410;28;45451;-69
2022/07/21 03:35:53;;;;;;;;;4.67;4.33;;;;;;;;5016122;28;45553;-70
2022/07/21 03:38:19;;;;;;;;;4.33;4.33;;;;;;;;5016522;28;45413;-70
2022/07/21 03:40:44;;;;;;;;;3.33;3.33;;;;;;;;5016081;28;45766;-70
2022/07/21 03:43:09;;;;;;;;;6.67;6.00;;;;;;;;5016562;28;45310;-70
2022/07/21 03:45:35;;;;;;;;;3.33;2.67;;;;;;;;5016700;28;45372;-70
2022/07/21 03:48:02;;;;;;;;;0.00;0.00;;;;;;;;5016250;28;45217;-70
2022/07/21 03:50:28;;;;;;;;;4.00;4.00;;;;;;;;5015873;28;45614;-70
2022/07/21 03:52:53;;;;;;;;;7.00;5.67;;;;;;;;5015879;28;45236;-70
2022/07/21 03:55:18;;;;;;;;;5.50;5.50;;;;;;;;5016222;28;45277;-70
2022/07/21 03:57:51;;;;;;;;;4.00;4.00;;;;;;;;5015813;28;45234;-70
2022/07/21 04:00:18;;;;;;;;;6.33;5.00;;;;;;;;5002431;28;48615;-70
2022/07/21 04:02:43;;;;;;;;;4.33;4.33;;;;;;;;5016002;28;45454;-70
2022/07/21 04:05:12;;;;;;;;;3.00;3.00;;;;;;;;5015920;28;45788;-70
2022/07/21 04:07:41;;;;;;;;;5.00;5.00;;;;;;;;5016049;28;45421;-70
2022/07/21 04:10:07;;;;;;;;;7.67;6.00;;;;;;;;5015256;28;46254;-70
2022/07/21 04:12:32;;;;;;;;;5.00;5.00;;;;;;;;5014521;28;46216;-70
2022/07/21 04:14:58;;;;;;;;;5.00;5.00;;;;;;;;5015978;28;45265;-70
2022/07/21 04:17:23;;;;;;;;;5.00;5.00;;;;;;;;5015475;28;45352;-70
2022/07/21 04:19:48;;;;;;;;;4.33;4.33;;;;;;;;5015659;28;45446;-70
2022/07/21 04:22:13;;;;;;;;;4.33;4.33;;;;;;;;5015718;28;45405;-70
2022/07/21 04:24:38;;;;;;;;;4.67;4.67;;;;;;;;5015627;28;45199;-70
2022/07/21 04:27:04;;;;;;;;;4.00;4.00;;;;;;;;5016144;28;45503;-70
2022/07/21 04:29:29;;;;;;;;;7.00;5.67;;;;;;;;5015252;28;46978;-70
2022/07/21 04:31:54;;;;;;;;;4.00;4.00;;;;;;;;5015278;28;45483;-70
2022/07/21 04:34:19;;;;;;;;;3.67;3.33;;;;;;;;5015836;28;45504;-70
2022/07/21 04:36:45;;;;;;;;;5.67;5.67;;;;;;;;5009491;28;45799;-69
2022/07/21 04:39:10;;;;;;;;;6.33;5.67;;;;;;;;5015214;28;46215;-70
2022/07/21 04:41:35;;;;;;;;;4.67;4.67;;;;;;;;5015791;28;45380;-70
2022/07/21 04:44:00;;;;;;;;;7.00;7.00;;;;;;;;5015339;28;45328;-70
2022/07/21 04:46:26;;;;;;;;;4.00;4.00;;;;;;;;5015373;28;45490;-70
2022/07/21 04:48:51;;;;;;;;;5.00;4.00;;;;;;;;5015557;28;45450;-70
2022/07/21 04:51:16;;;;;;;;;5.67;5.67;;;;;;;;5015185;28;45533;-70
2022/07/21 04:53:41;;;;;;;;;7.00;6.00;;;;;;;;5015351;28;45471;-70
2022/07/21 04:56:07;;;;;;;;;6.00;4.67;;;;;;;;5015283;28;45538;-69
2022/07/21 04:58:32;;;;;;;;;7.00;5.00;;;;;;;;5014960;28;45427;-70
2022/07/21 05:00:57;;;;;;;;;5.33;5.33;;;;;;;;5014017;28;45478;-70
2022/07/21 05:03:22;;;;;;;;;4.00;4.00;;;;;;;;5015062;28;45371;-70
2022/07/21 05:05:48;;;;;;;;;5.33;4.33;;;;;;;;5013892;28;45577;-70
2022/07/21 05:08:13;;;;;;;;;7.33;5.67;;;;;;;;5014577;28;45564;-70
2022/07/21 05:10:38;;;;;;;;;5.33;5.33;;;;;;;;5016011;28;45498;-70
2022/07/21 05:13:03;;;;;;;;;6.33;5.00;;;;;;;;5019063;28;45351;-70
2022/07/21 05:15:28;;;;;;;;;5.67;3.67;;;;;;;;5018878;28;45455;-69
2022/07/21 05:17:54;;;;;;;;;4.00;4.00;;;;;;;;5018571;28;46324;-69
2022/07/21 05:20:19;;;;;;;;;4.00;4.00;;;;;;;;5018466;28;45423;-70
2022/07/21 05:22:44;;;;;;;;;4.00;4.00;;;;;;;;5018283;28;45481;-70
2022/07/21 05:25:09;;;;;;;;;4.67;4.67;;;;;;;;5018966;28;45628;-70
2022/07/21 05:27:34;;;;;;;;;6.33;5.33;;;;;;;;5018283;28;46188;-70
2022/07/21 05:30:00;;;;;;;;;4.67;4.67;;;;;;;;5018622;28;45311;-70
2022/07/21 05:32:25;;;;;;;;;5.00;5.00;;;;;;;;5018649;28;45399;-70
2022/07/21 05:34:50;;;;;;;;;6.00;6.00;;;;;;;;5018313;28;45455;-70
2022/07/21 05:37:15;;;;;;;;;6.33;6.33;;;;;;;;5017883;28;45599;-70
2022/07/21 05:39:41;;;;;;;;;7.33;5.67;;;;;;;;5018269;28;45288;-70
2022/07/21 05:42:06;;;;;;;;;6.33;5.33;;;;;;;;5018249;28;45484;-70
2022/07/21 05:44:31;;;;;;;;;5.67;5.67;;;;;;;;5018442;28;45450;-70
2022/07/21 05:46:57;;;;;;;;;4.67;4.67;;;;;;;;5017631;28;45320;-70
2022/07/21 05:49:22;;;;;;;;;5.67;5.67;;;;;;;;5018117;28;45311;-70
2022/07/21 05:51:48;;;;;;;;;6.00;6.00;;;;;;;;5018069;28;45317;-70
2022/07/21 05:54:13;;;;;;;;;7.00;5.67;;;;;;;;5017953;28;45503;-70
2022/07/21 05:56:38;;;;;;;;;4.00;4.00;;;;;;;;5018022;28;46233;-70
2022/07/21 05:59:03;;;;;;;;;5.67;5.67;;;;;;;;5017873;28;45292;-70
2022/07/21 06:01:28;;;;;;;;;7.33;6.33;;;;;;;;5017673;28;45447;-70
2022/07/21 06:03:54;;;;;;;;;4.67;4.67;;;;;;;;5017887;28;45206;-70
2022/07/21 06:06:19;;;;;;;;;5.67;5.33;;;;;;;;5017336;28;45300;-70
2022/07/21 06:08:45;;;;;;;;;9.33;7.00;;;;;;;;5017518;28;45389;-69
2022/07/21 06:11:12;;;;;;;;;6.33;6.33;;;;;;;;5016753;28;45321;-70
2022/07/21 06:13:38;;;;;;;;;4.67;4.67;;;;;;;;5018018;28;45404;-70
2022/07/21 06:16:04;;;;;;;;;5.00;3.33;;;;;;;;5017341;28;46428;-70
2022/07/21 06:18:29;;;;;;;;;4.67;4.67;;;;;;;;5017868;28;45343;-70
2022/07/21 06:20:55;;;;;;;;;4.33;4.33;;;;;;;;5017060;28;45419;-69
2022/07/21 06:23:20;;;;;;;;;5.00;5.00;;;;;;;;5017935;28;45312;-70
2022/07/21 06:25:45;;;;;;;;;8.00;8.00;;;;;;;;5017586;28;45360;-70
2022/07/21 06:28:11;;;;;;;;;6.33;5.33;;;;;;;;5017282;28;45321;-70
2022/07/21 06:30:36;;;;;;;;;5.67;5.67;;;;;;;;5017827;28;45254;-70
2022/07/21 06:33:01;;;;;;;;;7.00;6.00;;;;;;;;5017507;28;45433;-70
2022/07/21 06:35:27;;;;;;;;;6.67;5.67;;;;;;;;5015398;28;47148;-70
2022/07/21 06:37:52;;;;;;;;;6.67;5.33;;;;;;;;5017107;28;45277;-70
2022/07/21 06:40:17;;;;;;;;;6.00;6.00;;;;;;;;5017800;28;45272;-70
2022/07/21 06:42:42;;;;;;;;;7.67;6.33;;;;;;;;5017071;28;45559;-70
2022/07/21 06:45:08;;;;;;;;;6.00;6.00;;;;;;;;5017509;28;45653;-70
2022/07/21 06:47:33;;;;;;;;;7.00;5.33;;;;;;;;5017293;28;45356;-70
2022/07/21 06:50:04;;;;;;;;;8.00;6.00;;;;;;;;5017033;28;45374;-70
2022/07/21 06:52:30;;;;;;;;;7.67;6.67;;;;;;;;5017473;28;45411;-70
2022/07/21 06:54:55;;;;;;;;;8.33;6.33;;;;;;;;5017020;28;46988;-70
2022/07/21 06:57:20;;;;;;;;;6.00;6.00;;;;;;;;5017297;28;45325;-70
2022/07/21 06:59:46;;;;;;;;;6.00;4.67;;;;;;;;5016337;28;45281;-70
2022/07/21 07:02:11;;;;;;;;;6.33;5.00;;;;;;;;5016648;28;45349;-68
2022/07/21 07:04:36;;;;;;;;;6.33;6.00;;;;;;;;5016769;28;46662;-70
2022/07/21 07:07:01;;;;;;;;;6.33;5.33;;;;;;;;5015595;28;45364;-70
2022/07/21 07:09:26;;;;;;;;;6.00;6.00;;;;;;;;5017033;28;45467;-70
2022/07/21 07:11:52;;;;;;;;;6.33;5.33;;;;;;;;5016802;28;45400;-70
2022/07/21 07:14:18;;;;;;;;;6.00;6.00;;;;;;;;5016509;28;46506;-70
2022/07/21 07:16:43;;;;;;;;;8.33;7.00;;;;;;;;5015982;28;45336;-70
2022/07/21 07:19:08;;;;;;;;;5.00;5.00;;;;;;;;5016843;28;45284;-69
2022/07/21 07:21:33;;;;;;;;;7.00;5.33;;;;;;;;5016888;28;45310;-70
2022/07/21 07:23:58;;;;;;;;;5.33;4.67;;;;;;;;5016182;28;45300;-70
2022/07/21 07:26:24;;;;;;;;;8.33;5.67;;;;;;;;5016824;28;45364;-70
2022/07/21 07:28:49;;;;;;;;;6.33;5.67;;;;;;;;5016525;28;45481;-70
2022/07/21 07:31:14;;;;;;;;;6.00;6.00;;;;;;;;5016291;28;45351;-70
2022/07/21 07:33:39;;;;;;;;;6.67;4.67;;;;;;;;5015130;28;46472;-70
2022/07/21 07:36:05;;;;;;;;;6.00;6.00;;;;;;;;5016178;28;45268;-70
2022/07/21 07:38:30;;;;;;;;;5.33;4.33;;;;;;;;5016823;28;45337;-70
2022/07/21 07:40:55;;;;;;;;;4.67;4.67;;;;;;;;5016616;28;45327;-70
2022/07/21 07:43:20;;;;;;;;;5.00;5.00;;;;;;;;5016313;28;45628;-70
2022/07/21 07:45:45;;;;;;;;;8.67;8.00;;;;;;;;5016244;28;45476;-70
2022/07/21 07:48:11;;;;;;;;;7.33;5.00;;;;;;;;5016026;28;45395;-70
2022/07/21 07:50:36;;;;;;;;;5.33;5.33;;;;;;;;5016191;28;45470;-70
2022/07/21 07:53:01;;;;;;;;;6.33;6.33;;;;;;;;5015786;28;45336;-70
2022/07/21 07:55:26;;;;;;;;;7.67;6.67;;;;;;;;5016296;28;45379;-70
2022/07/21 07:57:52;;;;;;;;;5.00;5.00;;;;;;;;5016268;28;45336;-70
2022/07/21 08:00:18;;;;;;;;;6.00;5.00;;;;;;;;5015756;28;45484;-70
2022/07/21 08:02:43;;;;;;;;;7.00;7.00;;;;;;;;5015886;28;45390;-70
2022/07/21 08:05:09;;;;;;;;;5.00;5.00;;;;;;;;5015910;28;45444;-69
2022/07/21 08:07:35;;;;;;;;;5.33;4.00;;;;;;;;5015908;28;45475;-70
2022/07/21 08:10:00;;;;;;;;;6.33;6.33;;;;;;;;5015454;28;45320;-70
2022/07/21 08:12:25;;;;;;;;;6.67;4.33;;;;;;;;5015544;28;46556;-70
2022/07/21 08:14:50;;;;;;;;;5.67;5.67;;;;;;;;5015849;28;45153;-70
2022/07/21 08:17:16;;;;;;;;;7.00;6.00;;;;;;;;5015752;28;45383;-70
2022/07/21 08:19:42;;;;;;;;;7.00;5.00;;;;;;;;5016045;28;45251;-70
2022/07/21 08:22:07;;;;;;;;;5.33;5.33;;;;;;;;5015590;28;46296;-70
2022/07/21 08:24:32;;;;;;;;;11.00;7.33;;;;;;;;5015777;28;45258;-70
2022/07/21 08:26:57;;;;;;;;;8.33;7.00;;;;;;;;5016018;28;45314;-70
2022/07/21 08:29:22;;;;;;;;;8.00;8.00;;;;;;;;5015139;28;45405;-70
2022/07/21 08:31:48;;;;;;;;;9.67;9.67;;;;;;;;5015323;28;46109;-70
2022/07/21 08:34:13;;;;;;;;;7.00;7.00;;;;;;;;5015452;28;45510;-70
2022/07/21 08:36:38;;;;;;;;;8.67;8.67;;;;;;;;5015637;28;45282;-70
2022/07/21 08:39:03;;;;;;;;;6.00;6.00;;;;;;;;5015790;28;45377;-70
2022/07/21 08:41:29;;;;;;;;;12.00;9.33;;;;;;;;5015266;28;46973;-70
2022/07/21 08:43:55;;;;;;;;;7.67;7.33;;;;;;;;5015213;28;45168;-70
2022/07/21 08:46:23;;;;;;;;;8.67;7.33;;;;;;;;5015231;28;45404;-70
2022/07/21 08:48:49;;;;;;;;;7.00;6.00;;;;;;;;5015143;28;45422;-70
2022/07/21 08:51:15;;;;;;;;;8.33;8.00;;;;;;;;5014803;28;45360;-70
2022/07/21 08:53:43;;;;;;;;;8.25;7.50;;;;;;;;5015444;28;45376;-70
2022/07/21 08:56:08;;;;;;;;;7.67;7.67;;;;;;;;5015339;28;45390;-70
2022/07/21 08:58:35;;;;;;;;;7.67;7.67;;;;;;;;5014769;28;45410;-70
2022/07/21 09:01:01;;;;;;;;;10.67;8.33;;;;;;;;5015264;28;45797;-70
2022/07/21 09:03:27;;;;;;;;;7.00;7.00;;;;;;;;5014772;28;45427;-70
2022/07/21 09:06:11;;;;;;;;;8.67;8.67;;;;;;;;5014878;28;45269;-70
2022/07/21 09:08:38;;;;;;;;;11.75;11.75;;;;;;;;5014618;28;45396;-70
2022/07/21 09:11:12;;;;;;;;;11.00;10.00;;;;;;;;5015103;28;45472;-70
2022/07/21 09:13:38;;;;;;;;;6.67;6.67;;;;;;;;5014461;28;45441;-69
2022/07/21 09:16:03;;;;;;;;;8.33;8.33;;;;;;;;5014969;28;45438;-70
2022/07/21 09:18:29;;;;;;;;;10.00;9.00;;;;;;;;5015080;28;45466;-69
2022/07/21 09:20:54;;;;;;;;;8.33;8.33;;;;;;;;5014832;28;46220;-70
2022/07/21 09:23:21;;;;;;;;;8.00;7.00;;;;;;;;5015247;28;45494;-70
2022/07/21 09:25:49;;;;;;;;;9.00;8.33;;;;;;;;5015035;28;45407;-70
2022/07/21 09:28:14;;;;;;;;;9.33;9.00;;;;;;;;5014376;28;45388;-70
2022/07/21 09:30:58;;;;;;;;;10.33;8.33;;;;;;;;5014655;28;47317;-70
2022/07/21 09:33:25;;;;;;;;;8.67;7.33;;;;;;;;5014746;28;45508;-70
2022/07/21 09:35:58;;;;;;;;;8.67;8.67;;;;;;;;5014586;28;45503;-70
2022/07/21 09:38:24;;;;;;;;;8.50;8.50;;;;;;;;5014923;28;45225;-70
2022/07/21 09:40:49;;;;;;;;;9.00;9.00;;;;;;;;5014451;28;45647;-70
2022/07/21 09:43:30;;;;;;;;;9.33;9.33;;;;;;;;5014215;28;45277;-70
2022/07/21 09:45:56;;;;;;;;;7.67;7.67;;;;;;;;5014927;28;45284;-70
2022/07/21 09:48:34;;;;;;;;;11.00;10.67;;;;;;;;5014251;28;45464;-70
2022/07/21 09:51:18;;;;;;;;;7.67;7.33;;;;;;;;5014851;28;45519;-70
2022/07/21 09:54:00;;;;;;;;;9.33;9.00;;;;;;;;5003168;28;45444;-70
2022/07/21 09:56:26;;;;;;;;;10.00;7.67;;;;;;;;5014619;28;45320;-70
2022/07/21 09:58:53;;;;;;;;;7.00;6.33;;;;;;;;5017947;28;45570;-69
2022/07/21 10:01:18;;;;;;;;;10.33;9.33;;;;;;;;5017742;28;46616;-69
2022/07/21 10:03:45;;;;;;;;;11.00;10.00;;;;;;;;5017944;28;45400;-70
2022/07/21 10:06:10;;;;;;;;;7.33;7.33;;;;;;;;5018264;28;45448;-70
2022/07/21 10:08:36;;;;;;;;;9.67;8.33;;;;;;;;5017458;28;45423;-70
2022/07/21 10:11:02;;;;;;;;;7.00;7.00;;;;;;;;5017557;28;45400;-70
2022/07/21 10:13:27;;;;;;;;;9.67;7.67;;;;;;;;5017990;28;45364;-70
2022/07/21 10:15:53;;;;;;;;;12.33;8.67;;;;;;;;5031841;28;45716;-70
2022/07/21 10:18:19;;;;;;;;;10.00;9.67;;;;;;;;5017653;28;45451;-70
2022/07/21 10:20:46;;;;;;;;;9.00;9.00;;;;;;;;5017452;28;46417;-70
2022/07/21 10:23:18;;;;;;;;;9.33;9.33;;;;;;;;5017138;28;45320;-70
2022/07/21 10:25:43;;;;;;;;;9.00;9.00;;;;;;;;5016952;28;45462;-70
2022/07/21 10:28:23;;;;;;;;;8.00;8.00;;;;;;;;5017734;28;45332;-70
2022/07/21 10:30:54;;;;;;;;;8.00;8.00;;;;;;;;5017453;28;45279;-70
2022/07/21 10:33:20;;;;;;;;;13.00;9.00;;;;;;;;5017191;28;45455;-70
2022/07/21 10:35:49;;;;;;;;;10.00;9.00;;;;;;;;5017394;28;45360;-70
2022/07/21 10:38:31;;;;;;;;;9.67;9.33;;;;;;;;5017466;28;45517;-70
2022/07/21 10:40:57;;;;;;;;;12.67;9.67;;;;;;;;5016857;28;45431;-70
2022/07/21 10:43:25;;;;;;;;;9.67;8.00;;;;;;;;5017233;28;45480;-70
2022/07/21 10:45:51;;;;;;;;;10.00;8.33;;;;;;;;5017024;28;45526;-70
2022/07/21 10:48:34;;;;;;;;;10.33;8.00;;;;;;;;4999328;28;45646;-70
2022/07/21 10:51:02;;;;;;;;;10.00;9.00;;;;;;;;5016710;28;45425;-70
2022/07/21 10:53:27;;;;;;;;;9.00;8.00;;;;;;;;5003338;28;45464;-69
2022/07/21 10:55:53;;;;;;;;;10.67;9.00;;;;;;;;5016778;28;45347;-69
2022/07/21 10:58:27;;;;;;;;;8.67;8.67;;;;;;;;5017160;28;45448;-70
2022/07/21 11:00:52;;;;;;;;;11.00;9.00;;;;;;;;5016725;28;46147;-70
2022/07/21 11:03:29;;;;;;;;;12.00;9.67;;;;;;;;5016669;28;45420;-70
2022/07/21 11:06:09;;;;;;;;;9.33;9.00;;;;;;;;5017358;28;45292;-70
2022/07/21 11:08:54;;;;;;;;;9.33;7.67;;;;;;;;5016452;28;45321;-70
2022/07/21 11:11:19;;;;;;;;;11.67;9.00;;;;;;;;5012811;28;45382;-70
2022/07/21 11:14:04;;;;;;;;;8.33;7.33;;;;;;;;5017063;28;45577;-70
2022/07/21 11:16:38;;;;;;;;;9.67;8.67;;;;;;;;5017007;28;45311;-69
2022/07/21 11:19:03;;;;;;;;;9.75;9.75;;;;;;;;5016563;28;45614;-69
2022/07/21 11:21:28;;;;;;;;;7.33;7.33;;;;;;;;5016515;28;47130;-70
2022/07/21 11:23:53;;;;;;;;;9.00;8.33;;;;;;;;5016297;28;45430;-70
2022/07/21 11:26:23;;;;;;;;;9.67;9.67;;;;;;;;5016945;28;45241;-69
2022/07/21 11:29:02;;;;;;;;;10.33;7.67;;;;;;;;5016729;28;45419;-70
2022/07/21 11:31:27;;;;;;;;;9.33;8.33;;;;;;;;5003757;28;45271;-70
2022/07/21 11:33:53;;;;;;;;;9.50;9.50;;;;;;;;5016352;28;45411;-70
2022/07/21 11:36:24;;;;;;;;;9.00;9.00;;;;;;;;5016567;28;45298;-70
2022/07/21 11:38:59;;;;;;;;;8.00;8.00;;;;;;;;5016025;28;45344;-70
2022/07/21 11:41:25;;;;;;;;;13.00;11.00;;;;;;;;5016028;28;45774;-70
2022/07/21 11:43:50;;;;;;;;;9.33;9.00;;;;;;;;5016627;28;45309;-70
2022/07/21 11:46:15;;;;;;;;;10.00;9.50;;;;;;;;5016543;28;45325;-70
2022/07/21 11:48:40;;;;;;;;;12.00;9.25;;;;;;;;5015998;28;45367;-70
2022/07/21 11:51:06;;;;;;;;;9.00;7.50;;;;;;;;5016203;28;45333;-70
2022/07/21 11:53:32;;;;;;;;;10.00;8.00;;;;;;;;5015586;28;45329;-70
2022/07/21 11:55:57;;;;;;;;;10.67;10.33;;;;;;;;5016419;28;45377;-70
2022/07/21 11:58:22;;;;;;;;;10.00;9.50;;;;;;;;5016265;28;45298;-70
2022/07/21 12:00:47;;;;;;;;;9.33;8.33;;;;;;;;5015997;28;46180;-70
2022/07/21 12:03:14;;;;;;;;;12.00;10.67;;;;;;;;5016026;28;45233;-70
2022/07/21 12:05:40;;;;;;;;;11.00;9.33;;;;;;;;5015870;28;45205;-70
2022/07/21 12:08:05;;;;;;;;;9.33;8.33;;;;;;;;5015412;28;45392;-70
2022/07/21 12:10:31;;;;;;;;;8.33;8.33;;;;;;;;5015639;28;45518;-70
2022/07/21 12:12:59;;;;;;;;;11.33;10.67;;;;;;;;5016059;28;45380;-70
2022/07/21 12:15:31;;;;;;;;;12.00;12.00;;;;;;;;5016035;28;46105;-70
2022/07/21 12:17:59;;;;;;;;;9.00;8.00;;;;;;;;5015667;28;45349;-70
2022/07/21 12:20:34;;;;;;;;;11.33;10.33;;;;;;;;5015008;28;45712;-70
2022/07/21 12:23:00;;;;;;;;;11.00;10.33;;;;;;;;5003206;28;45423;-70
2022/07/21 12:25:36;;;;;;;;;12.00;10.33;;;;;;;;5015638;28;45404;-70
2022/07/21 12:28:02;;;;;;;;;12.33;10.67;;;;;;;;5001474;28;45451;-70
2022/07/21 12:30:30;;;;;;;;;6.67;6.00;;;;;;;;5015647;28;45442;-70
2022/07/21 12:33:01;;;;;;;;;11.67;10.67;;;;;;;;5015224;28;45372;-70
2022/07/21 12:35:27;;;;;;;;;10.33;9.33;;;;;;;;5015250;28;45395;-70
2022/07/21 12:37:53;;;;;;;;;10.00;10.00;;;;;;;;5014985;28;45352;-70
2022/07/21 12:40:19;;;;;;;;;9.33;9.00;;;;;;;;5015568;28;45462;-70
2022/07/21 12:42:45;;;;;;;;;12.25;11.25;;;;;;;;5015189;28;45482;-70
2022/07/21 12:45:14;;;;;;;;;10.00;8.75;;;;;;;;5015765;28;45376;-69
2022/07/21 12:47:39;;;;;;;;;8.33;8.33;;;;;;;;5015559;28;45524;-70
2022/07/21 12:50:05;;;;;;;;;9.00;8.00;;;;;;;;5015264;28;46358;-70
2022/07/21 12:52:31;;;;;;;;;9.33;9.33;;;;;;;;5015173;28;45313;-70
2022/07/21 12:54:57;;;;;;;;;11.75;9.00;;;;;;;;5015246;28;45303;-70
2022/07/21 12:57:25;;;;;;;;;13.75;9.75;;;;;;;;5015291;28;45217;-70
2022/07/21 12:59:50;;;;;;;;;10.75;10.75;;;;;;;;5014993;28;46169;-70
2022/07/21 13:02:15;;;;;;;;;8.50;8.50;;;;;;;;5015059;28;45534;-70
2022/07/21 13:04:41;;;;;;;;;11.25;11.25;;;;;;;;5015125;28;45530;-70
2022/07/21 13:07:06;;;;;;;;;10.00;9.67;;;;;;;;5015090;28;45443;-70
2022/07/21 13:09:31;;;;;;;;;10.00;10.00;;;;;;;;5015043;28;45410;-70
2022/07/21 13:11:57;;;;;;;;;9.33;9.33;;;;;;;;5015042;28;45546;-70
2022/07/21 13:14:23;;;;;;;;;11.50;9.75;;;;;;;;5015054;28;45304;-70
2022/07/21 13:16:48;;;;;;;;;9.50;9.00;;;;;;;;5015003;28;45415;-69
2022/07/21 13:19:13;;;;;;;;;12.67;11.00;;;;;;;;5014312;28;46504;-69
2022/07/21 13:21:38;;;;;;;;;10.75;10.75;;;;;;;;5015074;28;45387;-70
2022/07/21 13:24:03;;;;;;;;;12.00;12.00;;;;;;;;5015264;28;45375;-70
2022/07/21 13:26:29;;;;;;;;;11.00;11.00;;;;;;;;5015225;28;45408;-70
2022/07/21 13:28:54;;;;;;;;;13.00;9.67;;;;;;;;5014657;28;45833;-70
2022/07/21 13:31:20;;;;;;;;;10.00;10.00;;;;;;;;5015155;28;45407;-70
2022/07/21 13:33:46;;;;;;;;;11.50;11.50;;;;;;;;5018316;28;45325;-70
2022/07/21 13:36:11;;;;;;;;;9.50;9.50;;;;;;;;5018231;28;45381;-70
2022/07/21 13:38:36;;;;;;;;;14.00;13.50;;;;;;;;5018353;28;47177;-70
2022/07/21 13:41:02;;;;;;;;;12.50;11.50;;;;;;;;5018005;28;45436;-70
2022/07/21 13:43:27;;;;;;;;;11.00;9.25;;;;;;;;5018619;28;45415;-70
2022/07/21 13:45:52;;;;;;;;;9.50;9.00;;;;;;;;5018677;28;45435;-70
2022/07/21 13:48:17;;;;;;;;;10.00;9.25;;;;;;;;5017607;28;45287;-70
2022/07/21 13:50:43;;;;;;;;;9.67;9.67;;;;;;;;5018253;28;45389;-70
2022/07/21 13:53:08;;;;;;;;;8.25;8.25;;;;;;;;5018311;28;45295;-70
2022/07/21 13:55:33;;;;;;;;;12.00;11.33;;;;;;;;5017617;28;45351;-70
2022/07/21 13:57:59;;;;;;;;;11.75;10.50;;;;;;;;5017784;28;46244;-70
2022/07/21 14:00:24;;;;;;;;;11.00;9.75;;;;;;;;5017854;28;45447;-70
2022/07/21 14:02:49;;;;;;;;;10.33;8.00;;;;;;;;5017727;28;45448;-70
2022/07/21 14:05:14;;;;;;;;;9.25;9.25;;;;;;;;5017961;28;45341;-70
2022/07/21 14:07:39;;;;;;;;;10.25;9.25;;;;;;;;5017531;28;46327;-70
2022/07/21 14:10:06;;;;;;;;;9.00;9.00;;;;;;;;5017373;28;45375;-70
2022/07/21 14:12:31;;;;;;;;;11.00;11.00;;;;;;;;5017851;28;45535;-70
2022/07/21 14:14:56;;;;;;;;;11.50;10.00;;;;;;;;5018055;28;45399;-70
2022/07/21 14:17:21;;;;;;;;;11.33;11.33;;;;;;;;5016031;28;46046;-70
2022/07/21 14:19:47;;;;;;;;;9.00;9.00;;;;;;;;5017920;28;45305;-70
2022/07/21 14:22:17;;;;;;;;;10.00;9.00;;;;;;;;5017786;28;45380;-70
2022/07/21 14:27:26;;;;;;;;;11.00;10.00;;;;;;;;5017254;28;45689;-70
2022/07/21 14:29:54;;;;;;;;;12.75;10.75;;;;;;;;5017027;28;45337;-70
2022/07/21 14:32:21;;;;;;;;;10.75;9.75;;;;;;;;5017136;28;45252;-70
2022/07/21 14:34:50;;;;;;;;;11.33;8.67;;;;;;;;5017211;28;45468;-70
2022/07/21 14:37:15;;;;;;;;;12.50;11.00;;;;;;;;5016978;28;45338;-70
2022/07/21 14:39:41;;;;;;;;;11.25;9.00;;;;;;;;5016615;28;45372;-70